Arni Fridriksson — TFNA — position and weather

sailwx.info

Track history (hours):
 
Tides and Currents Weather Stations Pressure Air Temp Water Temp Dewpoint Dewpoint Depression Visibility Wind Speed Wind Dir Waves Ship Positions

Oceanographic research ship Arni Fridriksson (Iceland)

Detailed information on ship capabilities available from University of Delaware's Ocean Information Center.

Last reported at 2018-Feb-22 03:00 UTC. Time now 2018-Feb-23 14:21 UTC.
Position N 64°30' W 023°18'.

Type: Fishing. MMSI: 251507000.

Wind from 170 at 19 knots

Barometer 985.2 mb
Air temperature 3.2 ° C
Visibility: greater than 10.8 NM
Water temperature 4.1 ° C

Date/timePositionNaut miles runAvg speedWind from/ knotsBaromVisibWave heightAir tempDewpointWater temp
2018-Feb-22 03:00N 64°30' W 023°18'3110.5 170 / 19985.210.8 3.2 4.1
2018-Feb-22 00:00N 64°48' W 024°18'29 9.7 180 / 23986.5 5.4 1.1 4.5
2018-Feb-21 21:00N 65°06' W 025°12'48 8.0 180 / 25985.7 5.4 3.5 4.2
2018-Feb-21 15:00N 65°36' W 026°42'14 4.6 170 / 51972.8 2.2 3.8 5.5
2018-Feb-21 12:00N 65°42' W 027°12'19 6.3 080 / 54972.1 0.3 2.0 5.9
2018-Feb-21 09:00N 65°54' W 027°48'34528.7 050 / 49990.3 0.3 -1.0 3.5
2018-Feb-20 21:00N 67°06' W 013°42'29899.2 250 1017.010.8 2.7 2.8
2018-Feb-20 18:00N 66°30' W 026°12'19 3.2 220 / 351005.9 5.4 0.5 0.7
2018-Feb-20 12:00N 66°30' W 025°24'308102.7 210 / 271000.1 2.2 0.1 5.8
2018-Feb-20 09:00N 68°00' W 012°42'28695.4 150 / 171004.0 5.4 2.2 0.8
2018-Feb-20 06:00N 66°54' W 024°48'12 4.1 200 987.8 5.4 3.5 4.5
2018-Feb-20 03:00N 67°06' W 024°42'19 6.2 190 / 31982.710.8 3.3 1.8
2018-Feb-20 00:00N 67°24' W 024°30'26 8.7 120 983.510.8 3.8 2.2
2018-Feb-19 21:00N 67°30' W 023°24'17458.1 110 985.710.8 4.5 3.2
2018-Feb-19 18:00N 67°00' W 016°00'14648.6 140 / 23995.5 1.1 3.9 3.3
2018-Feb-19 15:00N 67°36' W 022°06'8 2.5 100 / 19989.310.8 5.1 2.3
2018-Feb-19 12:00N 67°42' W 021°54'8 2.5 110 / 41989.5 0.5 3.4 1.7
2018-Feb-19 09:00N 67°36' W 022°06'6 2.1 080 / 39992.0 0.0 0.3 1.8
2018-Feb-19 06:00N 67°30' W 022°00'11 3.7 090 995.1 5.4 2.0 2.3
2018-Feb-19 03:00N 67°24' W 021°36'980326.6 080 / 351000.8 5.4 2.6 3.5
2018-Feb-19 00:00N 57°48' E 007°06'973324.3 250 1014.710.8 4.7
2018-Feb-18 21:00N 67°54' W 020°42'29 9.7 060 1008.2 2.2 0.8 2.0
2018-Feb-18 18:00N 67°36' W 019°42'20 6.7 060 / 251008.4 5.4 1.7 2.6
2018-Feb-18 15:00N 67°18' W 019°18'58 4.8 070 / 191008.8 2.2 2.0 3.0
2018-Feb-18 03:00N 67°42' W 021°36'12 4.0 1007.510.8 2.6 2.1
2018-Feb-18 00:00N 67°54' W 021°36'18 6.0 120 / 191005.010.8 2.1 1.3
2018-Feb-17 21:00N 67°54' W 022°24'16956.2 040 / 161002.0 1.1 1.4 1.4
2018-Feb-17 18:00N 67°18' W 015°12'13 4.4 120 / 191003.210.8 3.2 2.6
2018-Feb-17 15:00N 67°12' W 014°42'13 4.4 110 / 211001.610.8 3.4 2.9
2018-Feb-17 12:00N 67°18' W 015°12'15 5.1 100 / 191001.2 1.1 2.5 2.8
2018-Feb-17 09:00N 67°12' W 015°48'12113.4 120 / 191000.310.8 2.8 3.0
2018-Feb-17 00:00N 67°12' W 021°00'11638.7 230 / 10996.010.8 1.4 3.8
2018-Feb-16 21:00N 67°18' W 016°00'11 3.7 210 / 12994.410.8 2.6 2.8
2018-Feb-16 18:00N 67°24' W 016°24'3210.7 190 / 8990.910.8 3.2 1.8
2018-Feb-16 15:00N 66°54' W 016°54'15 1.7 190 / 10987.410.8 4.0 3.0
2018-Feb-16 06:00N 67°06' W 017°18'3712.2 240 / 12975.510.8 2.4 3.1
2018-Feb-16 03:00N 66°30' W 017°36'19 6.4 973.310.8 1.6 3.1
2018-Feb-16 00:00N 66°30' W 018°24'21 6.8 100 / 12970.910.8 2.8 2.9
2018-Feb-15 21:00N 66°42' W 017°42'38 4.3 120 / 12968.810.8 2.8 3.2
2018-Feb-15 12:10N 67°20' W 017°25'1 8.5
2018-Feb-15 12:00N 67°18' W 017°26'4 6.2
2018-Feb-15 11:19N 67°17' W 017°36'2 7.4
2018-Feb-15 11:00N 67°17' W 017°42'5 9.1
2018-Feb-15 10:30N 67°17' W 017°31'3 6.7
2018-Feb-15 10:00N 67°13' W 017°31'4 8.7
2018-Feb-15 09:30N 67°09' W 017°35'0 0.5
2018-Feb-15 09:00N 67°09' W 017°34'1 2.6
2018-Feb-15 08:30N 67°10' W 017°34'3 5.9
2018-Feb-15 08:00N 67°07' W 017°36'4 8.6
2018-Feb-15 07:30N 67°03' W 017°39'4 8.5
2018-Feb-15 07:00N 66°59' W 017°43'13 7.0
2018-Feb-15 05:13N 66°47' W 017°44'210.0
2018-Feb-15 05:00N 66°46' W 017°39'1 3.0
2018-Feb-15 04:30N 66°45' W 017°36'2 3.7
2018-Feb-15 04:00N 66°46' W 017°40'2 4.7
2018-Feb-15 03:30N 66°45' W 017°35'510.1
2018-Feb-15 03:00N 66°43' W 017°23'510.2
2018-Feb-15 02:30N 66°40' W 017°12'510.3
2018-Feb-15 02:01N 66°38' W 017°00'510.1
2018-Feb-15 01:30N 66°36' W 016°49'9 6.8
2018-Feb-15 00:14N 66°28' W 016°57'2 7.2
2018-Feb-14 23:59N 66°28' W 017°02'4 8.1
2018-Feb-14 23:30N 66°29' W 017°11'4 7.7
2018-Feb-14 23:00N 66°30' W 017°20'4 7.8
2018-Feb-14 22:30N 66°32' W 017°29'4 7.6
2018-Feb-14 22:00N 66°33' W 017°39'3 5.9
2018-Feb-14 21:30N 66°35' W 017°44'4 8.2
2018-Feb-14 21:00N 66°38' W 017°39'510.2
2018-Feb-14 20:30N 66°36' W 017°27'510.4
2018-Feb-14 20:00N 66°34' W 017°15'5 9.9
2018-Feb-14 19:30N 66°33' W 017°03'1 2.5
2018-Feb-14 19:00N 66°33' W 016°60'1 2.7
2018-Feb-14 18:30N 66°32' W 017°03'1 2.5
2018-Feb-14 17:59N 66°33' W 017°06'3 6.8
2018-Feb-14 17:30N 66°32' W 016°59'5 9.3
2018-Feb-14 17:00N 66°31' W 016°47'2 3.9
2018-Feb-14 16:30N 66°29' W 016°44'4 7.3
2018-Feb-14 15:59N 66°27' W 016°52'3 5.1
2018-Feb-14 15:29N 66°26' W 016°47'2 3.1
2018-Feb-14 14:59N 66°24' W 016°46'2 3.4
2018-Feb-14 14:28N 66°22' W 016°47'2 3.7
2018-Feb-14 13:59N 66°21' W 016°44'2 4.6
2018-Feb-14 13:30N 66°19' W 016°48'2 4.9
2018-Feb-14 13:00N 66°18' W 016°42'5 9.2
2018-Feb-14 12:30N 66°17' W 016°53'5 9.3
2018-Feb-14 12:00N 66°15' W 017°04'5 9.2
2018-Feb-14 11:30N 66°17' W 017°15'4 8.0
2018-Feb-14 11:00N 66°18' W 017°24'510.1
2018-Feb-14 10:30N 66°21' W 017°13'3 5.1
2018-Feb-14 09:59N 66°22' W 017°17'5 9.6
2018-Feb-14 09:30N 66°24' W 017°28'5 9.3
2018-Feb-14 09:00N 66°27' W 017°20'3 5.5
2018-Feb-14 08:30N 66°29' W 017°15'4 7.5
2018-Feb-14 08:00N 66°28' W 017°24'4 7.3
2018-Feb-14 07:30N 66°27' W 017°33'4 8.0
2018-Feb-14 07:00N 66°25' W 017°42'4 8.5
2018-Feb-14 06:30N 66°24' W 017°52'4 8.3
2018-Feb-14 06:00N 66°22' W 018°02'2141.1
2018-Feb-14 06:00N 66°24' W 018°00'510.0 100 / 17974.6 2.2 -1.4 2.8
2018-Feb-14 05:30N 66°21' W 018°10'3 6.3
2018-Feb-14 05:00N 66°20' W 018°17'3 5.8
2018-Feb-14 04:29N 66°19' W 018°25'3 5.6
2018-Feb-14 04:00N 66°18' W 018°31'4 7.9
2018-Feb-14 03:30N 66°19' W 018°40'4 8.5
2018-Feb-14 03:00N 66°20' W 018°51'3429.2
2018-Feb-14 03:00N 66°18' W 018°54'4 8.5 050 / 41975.0 2.2 1.3 3.0
2018-Feb-14 02:30N 66°21' W 019°00'4 8.2
2018-Feb-14 02:00N 66°22' W 019°10'4 8.0
2018-Feb-14 01:28N 66°23' W 019°21'4 8.2
2018-Feb-14 01:00N 66°24' W 019°30'4 7.8
2018-Feb-14 00:30N 66°25' W 019°39'4 7.8
2018-Feb-14 00:00N 66°26' W 019°49'24 7.9
2018-Feb-13 21:00N 66°30' W 020°48'12 4.0 080 / 35977.0 2.2 1.7 4.0
2018-Feb-13 18:00N 66°30' W 021°18'5217.3 090 / 41975.9 5.4 2.4 3.6
2018-Feb-13 15:00N 66°18' W 023°24'3110.4 080 / 29974.0 5.4 2.8 4.1
2018-Feb-13 12:00N 66°30' W 022°12'12 4.0 090 / 45974.5 1.1 2.0 2.6
2018-Feb-13 09:00N 66°30' W 022°42'16 5.2 090 / 37974.1 1.1 2.2 1.6
2018-Feb-13 06:00N 66°24' W 023°18'29 9.8 040 / 29970.6 0.0 0.2 1.1
2018-Feb-13 03:00N 66°00' W 024°00'54 9.0 979.810.8 -0.5 0.9
2018-Feb-12 21:00N 65°06' W 024°12'   150 / 16980.1 0.0 -2.2 4.2
Track history (hours):
 
Tides and Currents Weather Stations Pressure Air Temp Water Temp Dewpoint Dewpoint Depression Visibility Wind Speed Wind Dir Waves Ship Positions

Oceanographic research ship Arni Fridriksson (Iceland)

Detailed information on ship capabilities available from University of Delaware's Ocean Information Center.

Last reported at 2018-Feb-22 03:00 UTC. Time now 2018-Feb-23 14:21 UTC.
Position N 64°30' W 023°18'.

Type: Fishing. MMSI: 251507000.

Wind from 170 at 19 knots

Barometer 985.2 mb
Air temperature 3.2 ° C
Visibility: greater than 10.8 NM
Water temperature 4.1 ° C

Date/timePositionNaut miles runAvg speedWind from/ knotsBaromVisibWave heightAir tempDewpointWater temp
2018-Feb-22 03:00N 64°30' W 023°18'3110.5 170 / 19985.210.8 3.2 4.1
2018-Feb-22 00:00N 64°48' W 024°18'29 9.7 180 / 23986.5 5.4 1.1 4.5
2018-Feb-21 21:00N 65°06' W 025°12'48 8.0 180 / 25985.7 5.4 3.5 4.2
2018-Feb-21 15:00N 65°36' W 026°42'14 4.6 170 / 51972.8 2.2 3.8 5.5
2018-Feb-21 12:00N 65°42' W 027°12'19 6.3 080 / 54972.1 0.3 2.0 5.9
2018-Feb-21 09:00N 65°54' W 027°48'34528.7 050 / 49990.3 0.3 -1.0 3.5
2018-Feb-20 21:00N 67°06' W 013°42'29899.2 250 1017.010.8 2.7 2.8
2018-Feb-20 18:00N 66°30' W 026°12'19 3.2 220 / 351005.9 5.4 0.5 0.7
2018-Feb-20 12:00N 66°30' W 025°24'308102.7 210 / 271000.1 2.2 0.1 5.8
2018-Feb-20 09:00N 68°00' W 012°42'28695.4 150 / 171004.0 5.4 2.2 0.8
2018-Feb-20 06:00N 66°54' W 024°48'12 4.1 200 987.8 5.4 3.5 4.5
2018-Feb-20 03:00N 67°06' W 024°42'19 6.2 190 / 31982.710.8 3.3 1.8
2018-Feb-20 00:00N 67°24' W 024°30'26 8.7 120 983.510.8 3.8 2.2
2018-Feb-19 21:00N 67°30' W 023°24'17458.1 110 985.710.8 4.5 3.2
2018-Feb-19 18:00N 67°00' W 016°00'14648.6 140 / 23995.5 1.1 3.9 3.3
2018-Feb-19 15:00N 67°36' W 022°06'8 2.5 100 / 19989.310.8 5.1 2.3
2018-Feb-19 12:00N 67°42' W 021°54'8 2.5 110 / 41989.5 0.5 3.4 1.7
2018-Feb-19 09:00N 67°36' W 022°06'6 2.1 080 / 39992.0 0.0 0.3 1.8
2018-Feb-19 06:00N 67°30' W 022°00'11 3.7 090 995.1 5.4 2.0 2.3
2018-Feb-19 03:00N 67°24' W 021°36'980326.6 080 / 351000.8 5.4 2.6 3.5
2018-Feb-19 00:00N 57°48' E 007°06'973324.3 250 1014.710.8 4.7
2018-Feb-18 21:00N 67°54' W 020°42'29 9.7 060 1008.2 2.2 0.8 2.0
2018-Feb-18 18:00N 67°36' W 019°42'20 6.7 060 / 251008.4 5.4 1.7 2.6
2018-Feb-18 15:00N 67°18' W 019°18'58 4.8 070 / 191008.8 2.2 2.0 3.0
2018-Feb-18 03:00N 67°42' W 021°36'12 4.0 1007.510.8 2.6 2.1
2018-Feb-18 00:00N 67°54' W 021°36'18 6.0 120 / 191005.010.8 2.1 1.3
2018-Feb-17 21:00N 67°54' W 022°24'16956.2 040 / 161002.0 1.1 1.4 1.4
2018-Feb-17 18:00N 67°18' W 015°12'13 4.4 120 / 191003.210.8 3.2 2.6
2018-Feb-17 15:00N 67°12' W 014°42'13 4.4 110 / 211001.610.8 3.4 2.9
2018-Feb-17 12:00N 67°18' W 015°12'15 5.1 100 / 191001.2 1.1 2.5 2.8
2018-Feb-17 09:00N 67°12' W 015°48'12113.4 120 / 191000.310.8 2.8 3.0
2018-Feb-17 00:00N 67°12' W 021°00'11638.7 230 / 10996.010.8 1.4 3.8
2018-Feb-16 21:00N 67°18' W 016°00'11 3.7 210 / 12994.410.8 2.6 2.8
2018-Feb-16 18:00N 67°24' W 016°24'3210.7 190 / 8990.910.8 3.2 1.8
2018-Feb-16 15:00N 66°54' W 016°54'15 1.7 190 / 10987.410.8 4.0 3.0
2018-Feb-16 06:00N 67°06' W 017°18'3712.2 240 / 12975.510.8 2.4 3.1
2018-Feb-16 03:00N 66°30' W 017°36'19 6.4 973.310.8 1.6 3.1
2018-Feb-16 00:00N 66°30' W 018°24'21 6.8 100 / 12970.910.8 2.8 2.9
2018-Feb-15 21:00N 66°42' W 017°42'38 4.3 120 / 12968.810.8 2.8 3.2
2018-Feb-15 12:10N 67°20' W 017°25'1 8.5
2018-Feb-15 12:00N 67°18' W 017°26'4 6.2
2018-Feb-15 11:19N 67°17' W 017°36'2 7.4
2018-Feb-15 11:00N 67°17' W 017°42'5 9.1
2018-Feb-15 10:30N 67°17' W 017°31'3 6.7
2018-Feb-15 10:00N 67°13' W 017°31'4 8.7
2018-Feb-15 09:30N 67°09' W 017°35'0 0.5
2018-Feb-15 09:00N 67°09' W 017°34'1 2.6
2018-Feb-15 08:30N 67°10' W 017°34'3 5.9
2018-Feb-15 08:00N 67°07' W 017°36'4 8.6
2018-Feb-15 07:30N 67°03' W 017°39'4 8.5
2018-Feb-15 07:00N 66°59' W 017°43'13 7.0
2018-Feb-15 05:13N 66°47' W 017°44'210.0
2018-Feb-15 05:00N 66°46' W 017°39'1 3.0
2018-Feb-15 04:30N 66°45' W 017°36'2 3.7
2018-Feb-15 04:00N 66°46' W 017°40'2 4.7
2018-Feb-15 03:30N 66°45' W 017°35'510.1
2018-Feb-15 03:00N 66°43' W 017°23'510.2
2018-Feb-15 02:30N 66°40' W 017°12'510.3
2018-Feb-15 02:01N 66°38' W 017°00'510.1
2018-Feb-15 01:30N 66°36' W 016°49'9 6.8
2018-Feb-15 00:14N 66°28' W 016°57'2 7.2
2018-Feb-14 23:59N 66°28' W 017°02'4 8.1
2018-Feb-14 23:30N 66°29' W 017°11'4 7.7
2018-Feb-14 23:00N 66°30' W 017°20'4 7.8
2018-Feb-14 22:30N 66°32' W 017°29'4 7.6
2018-Feb-14 22:00N 66°33' W 017°39'3 5.9
2018-Feb-14 21:30N 66°35' W 017°44'4 8.2
2018-Feb-14 21:00N 66°38' W 017°39'510.2
2018-Feb-14 20:30N 66°36' W 017°27'510.4
2018-Feb-14 20:00N 66°34' W 017°15'5 9.9
2018-Feb-14 19:30N 66°33' W 017°03'1 2.5
2018-Feb-14 19:00N 66°33' W 016°60'1 2.7
2018-Feb-14 18:30N 66°32' W 017°03'1 2.5
2018-Feb-14 17:59N 66°33' W 017°06'3 6.8
2018-Feb-14 17:30N 66°32' W 016°59'5 9.3
2018-Feb-14 17:00N 66°31' W 016°47'2 3.9
2018-Feb-14 16:30N 66°29' W 016°44'4 7.3
2018-Feb-14 15:59N 66°27' W 016°52'3 5.1
2018-Feb-14 15:29N 66°26' W 016°47'2 3.1
2018-Feb-14 14:59N 66°24' W 016°46'2 3.4
2018-Feb-14 14:28N 66°22' W 016°47'2 3.7
2018-Feb-14 13:59N 66°21' W 016°44'2 4.6
2018-Feb-14 13:30N 66°19' W 016°48'2 4.9
2018-Feb-14 13:00N 66°18' W 016°42'5 9.2
2018-Feb-14 12:30N 66°17' W 016°53'5 9.3
2018-Feb-14 12:00N 66°15' W 017°04'5 9.2
2018-Feb-14 11:30N 66°17' W 017°15'4 8.0
2018-Feb-14 11:00N 66°18' W 017°24'510.1
2018-Feb-14 10:30N 66°21' W 017°13'3 5.1
2018-Feb-14 09:59N 66°22' W 017°17'5 9.6
2018-Feb-14 09:30N 66°24' W 017°28'5 9.3
2018-Feb-14 09:00N 66°27' W 017°20'3 5.5
2018-Feb-14 08:30N 66°29' W 017°15'4 7.5
2018-Feb-14 08:00N 66°28' W 017°24'4 7.3
2018-Feb-14 07:30N 66°27' W 017°33'4 8.0
2018-Feb-14 07:00N 66°25' W 017°42'4 8.5
2018-Feb-14 06:30N 66°24' W 017°52'4 8.3
2018-Feb-14 06:00N 66°22' W 018°02'2141.1
2018-Feb-14 06:00N 66°24' W 018°00'510.0 100 / 17974.6 2.2 -1.4 2.8
2018-Feb-14 05:30N 66°21' W 018°10'3 6.3
2018-Feb-14 05:00N 66°20' W 018°17'3 5.8
2018-Feb-14 04:29N 66°19' W 018°25'3 5.6
2018-Feb-14 04:00N 66°18' W 018°31'4 7.9
2018-Feb-14 03:30N 66°19' W 018°40'4 8.5
2018-Feb-14 03:00N 66°20' W 018°51'3429.2
2018-Feb-14 03:00N 66°18' W 018°54'4 8.5 050 / 41975.0 2.2 1.3 3.0
2018-Feb-14 02:30N 66°21' W 019°00'4 8.2
2018-Feb-14 02:00N 66°22' W 019°10'4 8.0
2018-Feb-14 01:28N 66°23' W 019°21'4 8.2
2018-Feb-14 01:00N 66°24' W 019°30'4 7.8
2018-Feb-14 00:30N 66°25' W 019°39'4 7.8
2018-Feb-14 00:00N 66°26' W 019°49'24 7.9
2018-Feb-13 21:00N 66°30' W 020°48'12 4.0 080 / 35977.0 2.2 1.7 4.0
2018-Feb-13 18:00N 66°30' W 021°18'5217.3 090 / 41975.9 5.4 2.4 3.6
2018-Feb-13 15:00N 66°18' W 023°24'3110.4 080 / 29974.0 5.4 2.8 4.1
2018-Feb-13 12:00N 66°30' W 022°12'12 4.0 090 / 45974.5 1.1 2.0 2.6
2018-Feb-13 09:00N 66°30' W 022°42'16 5.2 090 / 37974.1 1.1 2.2 1.6
2018-Feb-13 06:00N 66°24' W 023°18'29 9.8 040 / 29970.6 0.0 0.2 1.1
2018-Feb-13 03:00N 66°00' W 024°00'54 9.0 979.810.8 -0.5 0.9
2018-Feb-12 21:00N 65°06' W 024°12'   150 / 16980.1 0.0 -2.2 4.2

Dump ship's entire track history